sensor_id;sensor_type;location;lat;lon;timestamp;P1;durP1;ratioP1;P2;durP2;ratioP2
31872;SDS011;22407;42.820;23.374;2022-11-21T00:01:17;10.83;;;3.37;;
31872;SDS011;22407;42.820;23.374;2022-11-21T00:03:42;10.82;;;3.70;;
31872;SDS011;22407;42.820;23.374;2022-11-21T00:06:08;10.13;;;4.30;;
31872;SDS011;22407;42.820;23.374;2022-11-21T00:08:33;11.20;;;4.38;;
31872;SDS011;22407;42.820;23.374;2022-11-21T00:10:59;10.57;;;3.80;;
31872;SDS011;22407;42.820;23.374;2022-11-21T00:13:25;9.77;;;4.35;;
31872;SDS011;22407;42.820;23.374;2022-11-21T00:15:50;12.53;;;5.10;;
31872;SDS011;22407;42.820;23.374;2022-11-21T00:18:15;9.63;;;4.20;;
31872;SDS011;22407;42.820;23.374;2022-11-21T00:20:41;9.90;;;4.20;;
31872;SDS011;22407;42.820;23.374;2022-11-21T00:23:06;10.20;;;3.87;;
31872;SDS011;22407;42.820;23.374;2022-11-21T00:25:32;10.97;;;4.70;;
31872;SDS011;22407;42.820;23.374;2022-11-21T00:27:57;8.70;;;3.80;;
31872;SDS011;22407;42.820;23.374;2022-11-21T00:30:23;7.45;;;3.30;;
31872;SDS011;22407;42.820;23.374;2022-11-21T00:32:48;10.53;;;3.97;;
31872;SDS011;22407;42.820;23.374;2022-11-21T00:35:13;9.33;;;4.00;;
31872;SDS011;22407;42.820;23.374;2022-11-21T00:37:39;9.13;;;2.88;;
31872;SDS011;22407;42.820;23.374;2022-11-21T00:40:04;7.83;;;3.20;;
31872;SDS011;22407;42.820;23.374;2022-11-21T00:42:30;11.80;;;5.20;;
31872;SDS011;22407;42.820;23.374;2022-11-21T00:44:55;12.00;;;4.93;;
31872;SDS011;22407;42.820;23.374;2022-11-21T00:47:20;10.93;;;4.93;;
31872;SDS011;22407;42.820;23.374;2022-11-21T00:49:46;11.60;;;4.67;;
31872;SDS011;22407;42.820;23.374;2022-11-21T00:52:12;13.13;;;5.57;;
31872;SDS011;22407;42.820;23.374;2022-11-21T00:54:37;14.20;;;5.80;;
31872;SDS011;22407;42.820;23.374;2022-11-21T00:57:03;14.53;;;6.30;;
31872;SDS011;22407;42.820;23.374;2022-11-21T00:59:28;20.60;;;9.18;;
31872;SDS011;22407;42.820;23.374;2022-11-21T01:01:54;26.67;;;12.00;;
31872;SDS011;22407;42.820;23.374;2022-11-21T01:04:19;19.63;;;9.00;;
31872;SDS011;22407;42.820;23.374;2022-11-21T01:06:45;16.02;;;6.20;;
31872;SDS011;22407;42.820;23.374;2022-11-21T01:09:10;13.83;;;5.83;;
31872;SDS011;22407;42.820;23.374;2022-11-21T01:11:35;14.60;;;6.10;;
31872;SDS011;22407;42.820;23.374;2022-11-21T01:14:01;10.23;;;4.32;;
31872;SDS011;22407;42.820;23.374;2022-11-21T01:16:27;9.80;;;3.87;;
31872;SDS011;22407;42.820;23.374;2022-11-21T01:18:52;9.98;;;3.50;;
31872;SDS011;22407;42.820;23.374;2022-11-21T01:21:19;9.50;;;3.60;;
31872;SDS011;22407;42.820;23.374;2022-11-21T01:23:45;8.63;;;3.15;;
31872;SDS011;22407;42.820;23.374;2022-11-21T01:26:12;8.35;;;2.85;;
31872;SDS011;22407;42.820;23.374;2022-11-21T01:28:37;12.57;;;5.53;;
31872;SDS011;22407;42.820;23.374;2022-11-21T01:31:07;8.27;;;2.80;;
31872;SDS011;22407;42.820;23.374;2022-11-21T01:33:33;8.95;;;3.65;;
31872;SDS011;22407;42.820;23.374;2022-11-21T01:36:15;14.10;;;5.78;;
31872;SDS011;22407;42.820;23.374;2022-11-21T01:38:42;12.38;;;5.22;;
31872;SDS011;22407;42.820;23.374;2022-11-21T01:41:08;13.35;;;5.70;;
31872;SDS011;22407;42.820;23.374;2022-11-21T01:43:34;10.80;;;4.43;;
31872;SDS011;22407;42.820;23.374;2022-11-21T01:46:13;13.77;;;4.07;;
31872;SDS011;22407;42.820;23.374;2022-11-21T01:53:32;9.05;;;2.75;;
31872;SDS011;22407;42.820;23.374;2022-11-21T01:55:58;7.97;;;2.77;;
31872;SDS011;22407;42.820;23.374;2022-11-21T01:58:23;7.83;;;2.20;;
31872;SDS011;22407;42.820;23.374;2022-11-21T02:00:52;9.53;;;2.93;;
31872;SDS011;22407;42.820;23.374;2022-11-21T02:03:18;9.20;;;3.00;;
31872;SDS011;22407;42.820;23.374;2022-11-21T02:05:45;8.55;;;2.88;;
31872;SDS011;22407;42.820;23.374;2022-11-21T02:08:16;6.78;;;2.60;;
31872;SDS011;22407;42.820;23.374;2022-11-21T02:10:43;6.13;;;2.30;;
31872;SDS011;22407;42.820;23.374;2022-11-21T02:13:09;7.63;;;2.17;;
31872;SDS011;22407;42.820;23.374;2022-11-21T02:15:35;7.55;;;2.55;;
31872;SDS011;22407;42.820;23.374;2022-11-21T02:18:01;8.73;;;2.73;;
31872;SDS011;22407;42.820;23.374;2022-11-21T02:20:27;7.47;;;2.30;;
31872;SDS011;22407;42.820;23.374;2022-11-21T02:25:18;6.47;;;1.80;;
31872;SDS011;22407;42.820;23.374;2022-11-21T02:27:45;14.52;;;9.90;;
31872;SDS011;22407;42.820;23.374;2022-11-21T02:30:11;8.40;;;3.20;;
31872;SDS011;22407;42.820;23.374;2022-11-21T02:32:40;6.25;;;2.08;;
31872;SDS011;22407;42.820;23.374;2022-11-21T02:35:06;10.07;;;3.60;;
31872;SDS011;22407;42.820;23.374;2022-11-21T02:37:32;13.95;;;5.50;;
31872;SDS011;22407;42.820;23.374;2022-11-21T02:39:58;21.40;;;9.00;;
31872;SDS011;22407;42.820;23.374;2022-11-21T02:44:59;5.60;;;1.60;;
31872;SDS011;22407;42.820;23.374;2022-11-21T02:47:26;5.55;;;1.35;;
31872;SDS011;22407;42.820;23.374;2022-11-21T02:52:17;7.10;;;1.60;;
31872;SDS011;22407;42.820;23.374;2022-11-21T02:54:43;5.53;;;1.27;;
31872;SDS011;22407;42.820;23.374;2022-11-21T02:57:08;6.33;;;1.23;;
31872;SDS011;22407;42.820;23.374;2022-11-21T02:59:34;4.73;;;1.10;;
31872;SDS011;22407;42.820;23.374;2022-11-21T03:01:59;5.97;;;1.20;;
31872;SDS011;22407;42.820;23.374;2022-11-21T03:04:25;5.40;;;1.20;;
31872;SDS011;22407;42.820;23.374;2022-11-21T03:06:50;4.80;;;1.08;;
31872;SDS011;22407;42.820;23.374;2022-11-21T03:09:16;4.20;;;0.90;;
31872;SDS011;22407;42.820;23.374;2022-11-21T03:11:41;5.10;;;0.95;;
31872;SDS011;22407;42.820;23.374;2022-11-21T03:14:07;5.30;;;1.00;;
31872;SDS011;22407;42.820;23.374;2022-11-21T03:16:32;4.80;;;1.10;;
31872;SDS011;22407;42.820;23.374;2022-11-21T03:18:57;5.78;;;1.33;;
31872;SDS011;22407;42.820;23.374;2022-11-21T03:21:23;6.13;;;1.30;;
31872;SDS011;22407;42.820;23.374;2022-11-21T03:23:49;7.73;;;2.17;;
31872;SDS011;22407;42.820;23.374;2022-11-21T03:26:14;9.63;;;2.53;;
31872;SDS011;22407;42.820;23.374;2022-11-21T03:28:40;8.53;;;2.40;;
31872;SDS011;22407;42.820;23.374;2022-11-21T03:31:05;6.40;;;2.20;;
31872;SDS011;22407;42.820;23.374;2022-11-21T03:33:30;5.90;;;1.67;;
31872;SDS011;22407;42.820;23.374;2022-11-21T03:35:56;8.48;;;2.20;;
31872;SDS011;22407;42.820;23.374;2022-11-21T03:38:21;22.83;;;11.57;;
31872;SDS011;22407;42.820;23.374;2022-11-21T03:40:46;5.77;;;1.93;;
31872;SDS011;22407;42.820;23.374;2022-11-21T03:43:12;7.88;;;2.53;;
31872;SDS011;22407;42.820;23.374;2022-11-21T03:45:37;7.40;;;2.33;;
31872;SDS011;22407;42.820;23.374;2022-11-21T03:48:02;6.50;;;2.27;;
31872;SDS011;22407;42.820;23.374;2022-11-21T03:50:28;7.38;;;2.50;;
31872;SDS011;22407;42.820;23.374;2022-11-21T03:52:53;11.77;;;2.90;;
31872;SDS011;22407;42.820;23.374;2022-11-21T03:55:19;10.90;;;3.57;;
31872;SDS011;22407;42.820;23.374;2022-11-21T03:57:44;11.27;;;4.22;;
31872;SDS011;22407;42.820;23.374;2022-11-21T04:00:10;8.23;;;2.30;;
31872;SDS011;22407;42.820;23.374;2022-11-21T04:02:35;7.90;;;1.90;;
31872;SDS011;22407;42.820;23.374;2022-11-21T04:05:01;6.43;;;1.60;;
31872;SDS011;22407;42.820;23.374;2022-11-21T04:07:26;5.80;;;1.60;;
31872;SDS011;22407;42.820;23.374;2022-11-21T04:09:53;6.28;;;1.50;;
31872;SDS011;22407;42.820;23.374;2022-11-21T04:12:19;7.77;;;1.70;;
31872;SDS011;22407;42.820;23.374;2022-11-21T04:14:44;6.17;;;1.70;;
31872;SDS011;22407;42.820;23.374;2022-11-21T04:17:09;7.07;;;2.07;;
31872;SDS011;22407;42.820;23.374;2022-11-21T04:19:35;12.47;;;4.37;;
31872;SDS011;22407;42.820;23.374;2022-11-21T04:22:00;12.30;;;4.33;;
31872;SDS011;22407;42.820;23.374;2022-11-21T04:24:26;10.33;;;2.67;;
31872;SDS011;22407;42.820;23.374;2022-11-21T04:26:52;10.23;;;2.60;;
31872;SDS011;22407;42.820;23.374;2022-11-21T04:29:18;9.43;;;2.35;;
31872;SDS011;22407;42.820;23.374;2022-11-21T04:31:43;8.43;;;2.90;;
31872;SDS011;22407;42.820;23.374;2022-11-21T04:34:09;8.70;;;3.07;;
31872;SDS011;22407;42.820;23.374;2022-11-21T04:36:34;7.73;;;2.90;;
31872;SDS011;22407;42.820;23.374;2022-11-21T04:38:59;8.03;;;3.10;;
31872;SDS011;22407;42.820;23.374;2022-11-21T04:41:25;10.00;;;3.60;;
31872;SDS011;22407;42.820;23.374;2022-11-21T04:43:50;11.27;;;4.20;;
31872;SDS011;22407;42.820;23.374;2022-11-21T04:46:16;9.63;;;4.17;;
31872;SDS011;22407;42.820;23.374;2022-11-21T04:48:42;12.43;;;3.95;;
31872;SDS011;22407;42.820;23.374;2022-11-21T04:51:07;9.23;;;2.90;;
31872;SDS011;22407;42.820;23.374;2022-11-21T04:53:32;9.50;;;3.27;;
31872;SDS011;22407;42.820;23.374;2022-11-21T04:55:58;8.70;;;3.23;;
31872;SDS011;22407;42.820;23.374;2022-11-21T04:58:27;8.43;;;2.87;;
31872;SDS011;22407;42.820;23.374;2022-11-21T05:00:52;9.37;;;3.40;;
31872;SDS011;22407;42.820;23.374;2022-11-21T05:03:17;10.07;;;3.70;;
31872;SDS011;22407;42.820;23.374;2022-11-21T05:05:43;8.57;;;2.70;;
31872;SDS011;22407;42.820;23.374;2022-11-21T05:08:08;9.13;;;2.50;;
31872;SDS011;22407;42.820;23.374;2022-11-21T05:10:33;6.83;;;2.30;;
31872;SDS011;22407;42.820;23.374;2022-11-21T05:13:19;7.40;;;2.30;;
31872;SDS011;22407;42.820;23.374;2022-11-21T05:15:47;6.90;;;2.17;;
31872;SDS011;22407;42.820;23.374;2022-11-21T05:18:16;6.22;;;1.60;;
31872;SDS011;22407;42.820;23.374;2022-11-21T05:20:41;5.18;;;1.58;;
31872;SDS011;22407;42.820;23.374;2022-11-21T05:23:07;6.00;;;1.40;;
31872;SDS011;22407;42.820;23.374;2022-11-21T05:25:32;8.07;;;1.93;;
31872;SDS011;22407;42.820;23.374;2022-11-21T05:27:57;5.90;;;2.10;;
31872;SDS011;22407;42.820;23.374;2022-11-21T05:30:23;5.35;;;1.45;;
31872;SDS011;22407;42.820;23.374;2022-11-21T05:32:48;5.40;;;1.30;;
31872;SDS011;22407;42.820;23.374;2022-11-21T05:35:14;3.90;;;0.95;;
31872;SDS011;22407;42.820;23.374;2022-11-21T05:37:39;4.90;;;1.30;;
31872;SDS011;22407;42.820;23.374;2022-11-21T05:40:05;6.10;;;1.70;;
31872;SDS011;22407;42.820;23.374;2022-11-21T05:42:30;5.10;;;1.50;;
31872;SDS011;22407;42.820;23.374;2022-11-21T05:45:14;4.60;;;1.45;;
31872;SDS011;22407;42.820;23.374;2022-11-21T05:47:40;5.30;;;1.23;;
31872;SDS011;22407;42.820;23.374;2022-11-21T05:50:05;5.67;;;1.30;;
31872;SDS011;22407;42.820;23.374;2022-11-21T05:52:31;5.10;;;1.50;;
31872;SDS011;22407;42.820;23.374;2022-11-21T05:54:56;5.03;;;1.40;;
31872;SDS011;22407;42.820;23.374;2022-11-21T05:57:21;4.60;;;1.40;;
31872;SDS011;22407;42.820;23.374;2022-11-21T05:59:47;5.37;;;1.40;;
31872;SDS011;22407;42.820;23.374;2022-11-21T06:02:12;6.73;;;2.30;;
31872;SDS011;22407;42.820;23.374;2022-11-21T06:05:10;4.72;;;1.10;;
31872;SDS011;22407;42.820;23.374;2022-11-21T06:07:35;5.60;;;1.20;;
31872;SDS011;22407;42.820;23.374;2022-11-21T06:10:00;7.57;;;2.90;;
31872;SDS011;22407;42.820;23.374;2022-11-21T06:12:26;7.60;;;2.50;;
31872;SDS011;22407;42.820;23.374;2022-11-21T06:14:51;8.03;;;2.80;;
31872;SDS011;22407;42.820;23.374;2022-11-21T06:17:17;5.63;;;1.80;;
31872;SDS011;22407;42.820;23.374;2022-11-21T06:19:42;5.00;;;1.40;;
31872;SDS011;22407;42.820;23.374;2022-11-21T06:22:07;5.87;;;1.40;;
31872;SDS011;22407;42.820;23.374;2022-11-21T06:24:33;6.13;;;1.70;;
31872;SDS011;22407;42.820;23.374;2022-11-21T06:26:58;5.40;;;1.90;;
31872;SDS011;22407;42.820;23.374;2022-11-21T06:29:24;4.70;;;1.27;;
31872;SDS011;22407;42.820;23.374;2022-11-21T06:31:49;4.20;;;0.80;;
31872;SDS011;22407;42.820;23.374;2022-11-21T06:34:15;4.30;;;1.00;;
31872;SDS011;22407;42.820;23.374;2022-11-21T06:36:40;4.68;;;1.50;;
31872;SDS011;22407;42.820;23.374;2022-11-21T06:39:06;5.80;;;1.47;;
31872;SDS011;22407;42.820;23.374;2022-11-21T06:41:31;6.60;;;2.17;;
31872;SDS011;22407;42.820;23.374;2022-11-21T06:43:57;6.93;;;2.40;;
31872;SDS011;22407;42.820;23.374;2022-11-21T06:46:22;10.07;;;3.33;;
31872;SDS011;22407;42.820;23.374;2022-11-21T06:48:48;11.10;;;3.15;;
31872;SDS011;22407;42.820;23.374;2022-11-21T06:51:17;6.43;;;2.20;;
31872;SDS011;22407;42.820;23.374;2022-11-21T06:53:43;8.30;;;2.28;;
31872;SDS011;22407;42.820;23.374;2022-11-21T06:56:08;5.28;;;1.30;;
31872;SDS011;22407;42.820;23.374;2022-11-21T06:58:33;4.40;;;1.00;;
31872;SDS011;22407;42.820;23.374;2022-11-21T07:01:06;9.98;;;4.10;;
31872;SDS011;22407;42.820;23.374;2022-11-21T07:03:32;5.10;;;1.30;;
31872;SDS011;22407;42.820;23.374;2022-11-21T07:05:58;5.70;;;2.00;;
31872;SDS011;22407;42.820;23.374;2022-11-21T07:30:46;6.18;;;2.00;;
31872;SDS011;22407;42.820;23.374;2022-11-21T07:33:12;6.30;;;2.10;;
31872;SDS011;22407;42.820;23.374;2022-11-21T07:35:37;8.53;;;3.93;;
31872;SDS011;22407;42.820;23.374;2022-11-21T07:38:03;5.45;;;2.03;;
31872;SDS011;22407;42.820;23.374;2022-11-21T07:40:28;5.97;;;2.07;;
31872;SDS011;22407;42.820;23.374;2022-11-21T07:42:59;4.88;;;1.33;;
31872;SDS011;22407;42.820;23.374;2022-11-21T07:45:24;3.95;;;0.93;;
31872;SDS011;22407;42.820;23.374;2022-11-21T07:47:55;6.03;;;2.37;;
31872;SDS011;22407;42.820;23.374;2022-11-21T07:50:21;7.07;;;2.17;;
31872;SDS011;22407;42.820;23.374;2022-11-21T07:52:46;8.03;;;2.13;;
31872;SDS011;22407;42.820;23.374;2022-11-21T07:55:11;6.40;;;2.50;;
31872;SDS011;22407;42.820;23.374;2022-11-21T07:57:37;6.57;;;2.20;;
31872;SDS011;22407;42.820;23.374;2022-11-21T08:00:02;13.07;;;5.20;;
31872;SDS011;22407;42.820;23.374;2022-11-21T08:02:27;20.10;;;11.07;;
31872;SDS011;22407;42.820;23.374;2022-11-21T08:04:53;6.00;;;2.50;;
31872;SDS011;22407;42.820;23.374;2022-11-21T08:07:19;6.40;;;3.00;;
31872;SDS011;22407;42.820;23.374;2022-11-21T08:09:44;4.40;;;0.80;;
31872;SDS011;22407;42.820;23.374;2022-11-21T08:12:10;3.95;;;0.93;;
31872;SDS011;22407;42.820;23.374;2022-11-21T08:14:35;4.60;;;1.40;;
31872;SDS011;22407;42.820;23.374;2022-11-21T08:17:01;4.35;;;1.35;;
31872;SDS011;22407;42.820;23.374;2022-11-21T08:19:27;8.27;;;4.07;;
31872;SDS011;22407;42.820;23.374;2022-11-21T08:21:52;6.20;;;2.40;;
31872;SDS011;22407;42.820;23.374;2022-11-21T08:24:18;4.17;;;1.10;;
31872;SDS011;22407;42.820;23.374;2022-11-21T08:26:43;5.53;;;1.70;;
31872;SDS011;22407;42.820;23.374;2022-11-21T08:29:09;4.22;;;1.00;;
31872;SDS011;22407;42.820;23.374;2022-11-21T08:31:38;4.95;;;1.77;;
31872;SDS011;22407;42.820;23.374;2022-11-21T08:34:03;5.20;;;1.95;;
31872;SDS011;22407;42.820;23.374;2022-11-21T08:36:28;4.63;;;1.30;;
31872;SDS011;22407;42.820;23.374;2022-11-21T08:38:54;4.00;;;0.90;;
31872;SDS011;22407;42.820;23.374;2022-11-21T08:41:19;4.57;;;1.40;;
31872;SDS011;22407;42.820;23.374;2022-11-21T08:44:04;4.40;;;1.20;;
31872;SDS011;22407;42.820;23.374;2022-11-21T08:46:29;5.90;;;1.63;;
31872;SDS011;22407;42.820;23.374;2022-11-21T08:48:57;4.95;;;1.27;;
31872;SDS011;22407;42.820;23.374;2022-11-21T08:51:23;4.60;;;1.13;;
31872;SDS011;22407;42.820;23.374;2022-11-21T08:53:48;3.50;;;0.70;;
31872;SDS011;22407;42.820;23.374;2022-11-21T08:56:14;3.47;;;0.60;;
31872;SDS011;22407;42.820;23.374;2022-11-21T08:58:39;3.92;;;0.82;;
31872;SDS011;22407;42.820;23.374;2022-11-21T09:01:05;3.67;;;0.80;;
31872;SDS011;22407;42.820;23.374;2022-11-21T09:03:30;3.60;;;0.80;;
31872;SDS011;22407;42.820;23.374;2022-11-21T09:05:57;3.33;;;0.80;;
31872;SDS011;22407;42.820;23.374;2022-11-21T09:08:22;4.22;;;1.00;;
31872;SDS011;22407;42.820;23.374;2022-11-21T09:10:48;4.15;;;1.05;;
31872;SDS011;22407;42.820;23.374;2022-11-21T09:13:13;4.10;;;0.90;;
31872;SDS011;22407;42.820;23.374;2022-11-21T09:15:38;3.60;;;0.67;;
31872;SDS011;22407;42.820;23.374;2022-11-21T09:18:23;3.47;;;0.70;;
31872;SDS011;22407;42.820;23.374;2022-11-21T09:20:48;3.63;;;0.80;;
31872;SDS011;22407;42.820;23.374;2022-11-21T09:23:14;3.60;;;0.90;;
31872;SDS011;22407;42.820;23.374;2022-11-21T09:25:40;4.65;;;1.25;;
31872;SDS011;22407;42.820;23.374;2022-11-21T09:28:07;3.30;;;0.60;;
31872;SDS011;22407;42.820;23.374;2022-11-21T09:30:32;3.80;;;0.88;;
31872;SDS011;22407;42.820;23.374;2022-11-21T09:33:01;3.47;;;0.80;;
31872;SDS011;22407;42.820;23.374;2022-11-21T09:35:27;3.30;;;0.50;;
31872;SDS011;22407;42.820;23.374;2022-11-21T09:37:52;3.80;;;0.90;;
31872;SDS011;22407;42.820;23.374;2022-11-21T09:40:17;3.60;;;0.70;;
31872;SDS011;22407;42.820;23.374;2022-11-21T09:43:02;3.67;;;0.80;;
31872;SDS011;22407;42.820;23.374;2022-11-21T09:45:33;3.80;;;0.80;;
31872;SDS011;22407;42.820;23.374;2022-11-21T09:48:02;3.75;;;0.70;;
31872;SDS011;22407;42.820;23.374;2022-11-21T09:50:30;3.58;;;0.80;;
31872;SDS011;22407;42.820;23.374;2022-11-21T09:53:13;4.80;;;1.20;;
31872;SDS011;22407;42.820;23.374;2022-11-21T09:55:44;4.50;;;1.10;;
31872;SDS011;22407;42.820;23.374;2022-11-21T09:58:22;4.80;;;1.00;;
31872;SDS011;22407;42.820;23.374;2022-11-21T10:00:49;10.55;;;3.08;;
31872;SDS011;22407;42.820;23.374;2022-11-21T10:03:15;11.93;;;3.20;;
31872;SDS011;22407;42.820;23.374;2022-11-21T10:05:43;28.37;;;4.70;;
31872;SDS011;22407;42.820;23.374;2022-11-21T10:08:16;10.27;;;1.70;;
31872;SDS011;22407;42.820;23.374;2022-11-21T10:10:52;5.95;;;1.50;;
31872;SDS011;22407;42.820;23.374;2022-11-21T10:13:22;4.53;;;1.20;;
31872;SDS011;22407;42.820;23.374;2022-11-21T10:23:38;3.70;;;0.85;;
31872;SDS011;22407;42.820;23.374;2022-11-21T10:31:13;13.95;;;3.80;;
31872;SDS011;22407;42.820;23.374;2022-11-21T10:33:39;10.02;;;2.55;;
31872;SDS011;22407;42.820;23.374;2022-11-21T10:38:49;5.63;;;1.73;;
31872;SDS011;22407;42.820;23.374;2022-11-21T10:41:19;4.05;;;1.02;;
31872;SDS011;22407;42.820;23.374;2022-11-21T10:46:55;4.03;;;1.02;;
31872;SDS011;22407;42.820;23.374;2022-11-21T10:49:21;6.13;;;1.63;;
31872;SDS011;22407;42.820;23.374;2022-11-21T10:51:49;4.70;;;1.20;;
31872;SDS011;22407;42.820;23.374;2022-11-21T10:54:16;4.15;;;1.10;;
31872;SDS011;22407;42.820;23.374;2022-11-21T10:57:12;4.47;;;1.20;;
31872;SDS011;22407;42.820;23.374;2022-11-21T10:59:38;6.32;;;1.95;;
31872;SDS011;22407;42.820;23.374;2022-11-21T11:04:39;4.03;;;1.10;;
31872;SDS011;22407;42.820;23.374;2022-11-21T11:09:45;9.27;;;2.90;;
31872;SDS011;22407;42.820;23.374;2022-11-21T11:14:44;5.20;;;1.60;;
31872;SDS011;22407;42.820;23.374;2022-11-21T11:17:13;5.15;;;1.40;;
31872;SDS011;22407;42.820;23.374;2022-11-21T11:19:39;4.10;;;1.10;;
31872;SDS011;22407;42.820;23.374;2022-11-21T11:22:26;4.05;;;1.35;;
31872;SDS011;22407;42.820;23.374;2022-11-21T11:24:53;4.03;;;1.20;;
31872;SDS011;22407;42.820;23.374;2022-11-21T11:27:18;4.00;;;1.10;;
31872;SDS011;22407;42.820;23.374;2022-11-21T11:29:50;5.63;;;1.80;;
31872;SDS011;22407;42.820;23.374;2022-11-21T11:32:18;4.50;;;1.30;;
31872;SDS011;22407;42.820;23.374;2022-11-21T11:34:47;4.30;;;1.23;;
31872;SDS011;22407;42.820;23.374;2022-11-21T11:37:30;4.20;;;1.20;;
31872;SDS011;22407;42.820;23.374;2022-11-21T11:42:38;4.60;;;1.27;;
31872;SDS011;22407;42.820;23.374;2022-11-21T11:45:34;3.90;;;1.10;;
31872;SDS011;22407;42.820;23.374;2022-11-21T11:48:21;4.40;;;1.40;;
31872;SDS011;22407;42.820;23.374;2022-11-21T11:50:48;4.20;;;1.40;;
31872;SDS011;22407;42.820;23.374;2022-11-21T11:53:17;4.20;;;1.50;;
31872;SDS011;22407;42.820;23.374;2022-11-21T12:03:37;4.05;;;1.23;;
31872;SDS011;22407;42.820;23.374;2022-11-21T12:06:05;4.60;;;1.80;;
31872;SDS011;22407;42.820;23.374;2022-11-21T12:11:08;4.20;;;1.50;;
31872;SDS011;22407;42.820;23.374;2022-11-21T12:13:54;4.80;;;1.80;;
31872;SDS011;22407;42.820;23.374;2022-11-21T12:16:20;4.97;;;2.00;;
31872;SDS011;22407;42.820;23.374;2022-11-21T12:19:02;4.40;;;1.80;;
31872;SDS011;22407;42.820;23.374;2022-11-21T12:21:29;4.70;;;1.50;;
31872;SDS011;22407;42.820;23.374;2022-11-21T12:23:57;4.97;;;1.57;;
31872;SDS011;22407;42.820;23.374;2022-11-21T12:34:08;6.28;;;2.08;;
31872;SDS011;22407;42.820;23.374;2022-11-21T12:36:39;5.78;;;1.90;;
31872;SDS011;22407;42.820;23.374;2022-11-21T12:41:35;4.43;;;1.30;;
31872;SDS011;22407;42.820;23.374;2022-11-21T12:44:25;4.50;;;1.35;;
31872;SDS011;22407;42.820;23.374;2022-11-21T12:49:32;5.30;;;1.70;;
31872;SDS011;22407;42.820;23.374;2022-11-21T13:03:19;5.07;;;1.80;;
31872;SDS011;22407;42.820;23.374;2022-11-21T13:05:49;5.88;;;2.10;;
31872;SDS011;22407;42.820;23.374;2022-11-21T13:08:18;4.80;;;1.33;;
31872;SDS011;22407;42.820;23.374;2022-11-21T13:13:44;6.93;;;2.10;;
31872;SDS011;22407;42.820;23.374;2022-11-21T13:16:15;8.55;;;2.78;;
31872;SDS011;22407;42.820;23.374;2022-11-21T13:19:00;6.13;;;1.93;;
31872;SDS011;22407;42.820;23.374;2022-11-21T13:21:40;7.37;;;1.90;;
31872;SDS011;22407;42.820;23.374;2022-11-21T13:24:06;7.57;;;2.38;;
31872;SDS011;22407;42.820;23.374;2022-11-21T13:29:13;18.95;;;4.30;;
31872;SDS011;22407;42.820;23.374;2022-11-21T13:31:39;8.88;;;2.92;;
31872;SDS011;22407;42.820;23.374;2022-11-21T13:34:19;7.43;;;2.25;;
31872;SDS011;22407;42.820;23.374;2022-11-21T13:36:50;6.63;;;2.13;;
31872;SDS011;22407;42.820;23.374;2022-11-21T13:46:59;6.83;;;2.43;;
31872;SDS011;22407;42.820;23.374;2022-11-21T13:49:27;7.82;;;2.40;;
31872;SDS011;22407;42.820;23.374;2022-11-21T13:51:55;8.93;;;3.17;;
31872;SDS011;22407;42.820;23.374;2022-11-21T14:07:34;7.90;;;2.88;;
31872;SDS011;22407;42.820;23.374;2022-11-21T14:10:01;8.35;;;3.58;;
31872;SDS011;22407;42.820;23.374;2022-11-21T14:12:34;8.73;;;4.28;;
31872;SDS011;22407;42.820;23.374;2022-11-21T14:19:58;9.83;;;6.90;;
31872;SDS011;22407;42.820;23.374;2022-11-21T14:22:34;8.55;;;3.97;;
31872;SDS011;22407;42.820;23.374;2022-11-21T14:25:00;10.50;;;3.78;;
31872;SDS011;22407;42.820;23.374;2022-11-21T14:27:30;8.87;;;3.40;;
31872;SDS011;22407;42.820;23.374;2022-11-21T14:29:56;6.95;;;2.90;;
31872;SDS011;22407;42.820;23.374;2022-11-21T14:32:28;10.63;;;3.77;;
31872;SDS011;22407;42.820;23.374;2022-11-21T14:35:06;17.52;;;6.47;;
31872;SDS011;22407;42.820;23.374;2022-11-21T14:37:32;13.10;;;5.55;;
31872;SDS011;22407;42.820;23.374;2022-11-21T14:39:57;11.27;;;4.90;;
31872;SDS011;22407;42.820;23.374;2022-11-21T14:42:33;17.83;;;8.82;;
31872;SDS011;22407;42.820;23.374;2022-11-21T14:45:14;10.63;;;4.30;;
31872;SDS011;22407;42.820;23.374;2022-11-21T14:47:50;9.38;;;4.10;;
31872;SDS011;22407;42.820;23.374;2022-11-21T14:50:23;9.20;;;3.88;;
31872;SDS011;22407;42.820;23.374;2022-11-21T14:52:48;9.98;;;3.70;;
31872;SDS011;22407;42.820;23.374;2022-11-21T14:55:22;12.73;;;4.57;;
31872;SDS011;22407;42.820;23.374;2022-11-21T14:57:49;15.83;;;6.00;;
31872;SDS011;22407;42.820;23.374;2022-11-21T15:00:15;13.70;;;5.67;;
31872;SDS011;22407;42.820;23.374;2022-11-21T15:02:42;11.98;;;4.80;;
31872;SDS011;22407;42.820;23.374;2022-11-21T15:05:11;9.88;;;4.22;;
31872;SDS011;22407;42.820;23.374;2022-11-21T15:07:41;10.25;;;3.90;;
31872;SDS011;22407;42.820;23.374;2022-11-21T15:10:22;15.82;;;6.72;;
31872;SDS011;22407;42.820;23.374;2022-11-21T15:12:51;15.30;;;12.27;;
31872;SDS011;22407;42.820;23.374;2022-11-21T15:18:00;18.92;;;17.13;;
31872;SDS011;22407;42.820;23.374;2022-11-21T15:20:26;22.17;;;17.10;;
31872;SDS011;22407;42.820;23.374;2022-11-21T15:22:56;22.57;;;19.23;;
31872;SDS011;22407;42.820;23.374;2022-11-21T15:25:28;25.30;;;18.98;;
31872;SDS011;22407;42.820;23.374;2022-11-21T15:30:32;18.02;;;15.93;;
31872;SDS011;22407;42.820;23.374;2022-11-21T15:33:14;15.20;;;12.85;;
31872;SDS011;22407;42.820;23.374;2022-11-21T15:38:15;59.07;;;33.03;;
31872;SDS011;22407;42.820;23.374;2022-11-21T15:41:01;21.88;;;17.90;;
31872;SDS011;22407;42.820;23.374;2022-11-21T15:48:52;22.95;;;10.57;;
31872;SDS011;22407;42.820;23.374;2022-11-21T15:51:37;111.53;;;35.40;;
31872;SDS011;22407;42.820;23.374;2022-11-21T15:54:03;97.83;;;40.37;;
31872;SDS011;22407;42.820;23.374;2022-11-21T15:56:41;38.30;;;19.48;;
31872;SDS011;22407;42.820;23.374;2022-11-21T15:59:07;50.13;;;26.25;;
31872;SDS011;22407;42.820;23.374;2022-11-21T16:01:32;57.20;;;31.92;;
31872;SDS011;22407;42.820;23.374;2022-11-21T16:03:59;56.33;;;31.40;;
31872;SDS011;22407;42.820;23.374;2022-11-21T16:06:25;40.03;;;23.27;;
31872;SDS011;22407;42.820;23.374;2022-11-21T16:08:51;52.80;;;22.73;;
31872;SDS011;22407;42.820;23.374;2022-11-21T16:13:48;18.63;;;7.80;;
31872;SDS011;22407;42.820;23.374;2022-11-21T16:16:14;15.27;;;7.10;;
31872;SDS011;22407;42.820;23.374;2022-11-21T16:18:39;16.10;;;6.67;;
31872;SDS011;22407;42.820;23.374;2022-11-21T16:21:05;20.27;;;8.60;;
31872;SDS011;22407;42.820;23.374;2022-11-21T16:23:31;18.77;;;8.97;;
31872;SDS011;22407;42.820;23.374;2022-11-21T16:25:56;19.50;;;8.57;;
31872;SDS011;22407;42.820;23.374;2022-11-21T16:28:21;34.57;;;15.63;;
31872;SDS011;22407;42.820;23.374;2022-11-21T16:30:47;28.77;;;12.53;;
31872;SDS011;22407;42.820;23.374;2022-11-21T16:33:12;27.35;;;11.88;;
31872;SDS011;22407;42.820;23.374;2022-11-21T16:35:37;14.90;;;6.97;;
31872;SDS011;22407;42.820;23.374;2022-11-21T16:38:06;17.63;;;6.90;;
31872;SDS011;22407;42.820;23.374;2022-11-21T16:40:32;47.97;;;19.23;;
31872;SDS011;22407;42.820;23.374;2022-11-21T16:43:05;59.42;;;23.38;;
31872;SDS011;22407;42.820;23.374;2022-11-21T16:45:31;190.57;;;70.28;;
31872;SDS011;22407;42.820;23.374;2022-11-21T16:47:56;145.77;;;69.83;;
31872;SDS011;22407;42.820;23.374;2022-11-21T16:50:21;72.07;;;40.03;;
31872;SDS011;22407;42.820;23.374;2022-11-21T16:52:47;31.20;;;21.70;;
31872;SDS011;22407;42.820;23.374;2022-11-21T16:55:12;21.40;;;14.43;;
31872;SDS011;22407;42.820;23.374;2022-11-21T16:57:38;24.30;;;15.63;;